COBRA19 KOKC-KLRD
Flight info
| Callsign | COBRA19 |
|---|---|
| Flight time | N/A |
| Altitude | 10000 |
| Route | MUDDE3 MOOSE STV COT V17 IRICI |
| Aircraft | F35/M-SDE3RV/LB1 |
Departure
| Time | 2026-04-28 01:41 |
|---|---|
| Airport | OKC Will Rogers World Airport (KOKC) |
Arrival
| Time | N/A |
|---|---|
| Airport | Laredo International Airport (KLRD) |
| Time | Latitude | Longitude | Altitude | Speed | Heading |
|---|---|---|---|---|---|
| 2026-04-28 00:52 | 35.39540 | -97.59987 | 1294 ft | 0 kts | 117° |
| 2026-04-28 01:23 | 35.39538 | -97.59986 | 1294 ft | 0 kts | 147° |
| 2026-04-28 01:23 | 35.39535 | -97.59988 | 1294 ft | 1 kts | 203° |
| 2026-04-28 01:24 | 35.39535 | -97.59995 | 1293 ft | 4 kts | 272° |
| 2026-04-28 01:24 | 35.39551 | -97.60023 | 1293 ft | 5 kts | 306° |
| 2026-04-28 01:24 | 35.39559 | -97.60048 | 1292 ft | 4 kts | 275° |
| 2026-04-28 01:24 | 35.39563 | -97.60055 | 1292 ft | 1 kts | 340° |
| 2026-04-28 01:25 | 35.39580 | -97.60027 | 1293 ft | 11 kts | 52° |
| 2026-04-28 01:25 | 35.39608 | -97.59981 | 1295 ft | 3 kts | 37° |
| 2026-04-28 01:25 | 35.39617 | -97.59978 | 1295 ft | 0 kts | 23° |
| 2026-04-28 01:25 | 35.39619 | -97.59978 | 1295 ft | 1 kts | 4° |
| 2026-04-28 01:26 | 35.39621 | -97.60012 | 1294 ft | 7 kts | 239° |
| 2026-04-28 01:26 | 35.39603 | -97.60021 | 1293 ft | 2 kts | 145° |
| 2026-04-28 01:26 | 35.39608 | -97.59994 | 1294 ft | 8 kts | 61° |
| 2026-04-28 01:26 | 35.39631 | -97.59921 | 1297 ft | 8 kts | 76° |
| 2026-04-28 01:27 | 35.39633 | -97.59868 | 1299 ft | 5 kts | 90° |
| 2026-04-28 01:27 | 35.39632 | -97.59851 | 1299 ft | 0 kts | 108° |
| 2026-04-28 01:27 | 35.39632 | -97.59842 | 1299 ft | 10 kts | 86° |
| 2026-04-28 01:27 | 35.39645 | -97.59836 | 1299 ft | 1 kts | 335° |
| 2026-04-28 01:28 | 35.39645 | -97.59887 | 1298 ft | 9 kts | 250° |
| 2026-04-28 01:28 | 35.39629 | -97.60007 | 1294 ft | 19 kts | 259° |
| 2026-04-28 01:28 | 35.39569 | -97.60117 | 1291 ft | 13 kts | 195° |
| 2026-04-28 01:28 | 35.39509 | -97.60073 | 1292 ft | 9 kts | 130° |
| 2026-04-28 01:29 | 35.39471 | -97.60027 | 1293 ft | 7 kts | 138° |
| 2026-04-28 01:29 | 35.39437 | -97.59991 | 1294 ft | 6 kts | 138° |
| 2026-04-28 01:29 | 35.39413 | -97.59920 | 1295 ft | 12 kts | 83° |
| 2026-04-28 01:29 | 35.39402 | -97.59824 | 1296 ft | 4 kts | 144° |
| 2026-04-28 01:30 | 35.39362 | -97.59829 | 1295 ft | 9 kts | 180° |
| 2026-04-28 01:30 | 35.39299 | -97.59827 | 1295 ft | 9 kts | 178° |
| 2026-04-28 01:30 | 35.39261 | -97.59835 | 1295 ft | 8 kts | 182° |
| 2026-04-28 01:30 | 35.39219 | -97.59780 | 1296 ft | 11 kts | 99° |
| 2026-04-28 01:31 | 35.39217 | -97.59645 | 1295 ft | 18 kts | 91° |
| 2026-04-28 01:31 | 35.39215 | -97.59499 | 1295 ft | 11 kts | 91° |
| 2026-04-28 01:31 | 35.39217 | -97.59439 | 1296 ft | 8 kts | 89° |
| 2026-04-28 01:31 | 35.39216 | -97.59252 | 1294 ft | 18 kts | 90° |
| 2026-04-28 01:32 | 35.39217 | -97.59100 | 1292 ft | 5 kts | 89° |
| 2026-04-28 01:32 | 35.39186 | -97.59069 | 1292 ft | 17 kts | 165° |
| 2026-04-28 01:32 | 35.39088 | -97.59063 | 1292 ft | 12 kts | 179° |
| 2026-04-28 01:32 | 35.38945 | -97.59063 | 1293 ft | 23 kts | 185° |
| 2026-04-28 01:33 | 35.38783 | -97.59062 | 1290 ft | 24 kts | 179° |
| 2026-04-28 01:33 | 35.38622 | -97.59058 | 1293 ft | 22 kts | 178° |
| 2026-04-28 01:33 | 35.38470 | -97.59052 | 1292 ft | 21 kts | 185° |
| 2026-04-28 01:33 | 35.38339 | -97.59061 | 1291 ft | 18 kts | 180° |
| 2026-04-28 01:34 | 35.38186 | -97.59062 | 1293 ft | 32 kts | 179° |
| 2026-04-28 01:34 | 35.38072 | -97.59061 | 1292 ft | 1 kts | 180° |
| 2026-04-28 01:34 | 35.38029 | -97.59061 | 1291 ft | 13 kts | 180° |
| 2026-04-28 01:34 | 35.37949 | -97.59061 | 1289 ft | 8 kts | 180° |
| 2026-04-28 01:35 | 35.37943 | -97.59061 | 1289 ft | 0 kts | 180° |
| 2026-04-28 01:35 | 35.37933 | -97.59061 | 1289 ft | 1 kts | 180° |
| 2026-04-28 01:38 | 35.37904 | -97.59061 | 1289 ft | 1 kts | 180° |
| 2026-04-28 01:38 | 35.37862 | -97.59051 | 1289 ft | 4 kts | 148° |
| 2026-04-28 01:38 | 35.37861 | -97.59049 | 1289 ft | 0 kts | 145° |
| 2026-04-28 01:39 | 35.37854 | -97.59043 | 1290 ft | 4 kts | 138° |
| 2026-04-28 01:39 | 35.37842 | -97.59018 | 1290 ft | 0 kts | 112° |
| 2026-04-28 01:40 | 35.37840 | -97.59013 | 1290 ft | 3 kts | 112° |
| 2026-04-28 01:40 | 35.37836 | -97.58987 | 1290 ft | 3 kts | 97° |
| 2026-04-28 01:40 | 35.37837 | -97.58932 | 1289 ft | 12 kts | 83° |
| 2026-04-28 01:40 | 35.37873 | -97.58900 | 1289 ft | 11 kts | 3° |
| 2026-04-28 01:41 | 35.38295 | -97.58891 | 1289 ft | 114 kts | 360° |
| 2026-04-28 01:41 | 35.39423 | -97.58894 | 1354 ft | 217 kts | 0° |
| 2026-04-28 01:41 | 35.40834 | -97.59043 | 2043 ft | 315 kts | 354° |
| 2026-04-28 01:41 | 35.44390 | -97.59673 | 6534 ft | 450 kts | 348° |
| 2026-04-28 01:42 | 35.46629 | -97.60150 | 9363 ft | 509 kts | 346° |
| 2026-04-28 01:42 | 35.50302 | -97.61024 | 13886 ft | 552 kts | 344° |
| 2026-04-28 01:42 | 35.53671 | -97.62921 | 18057 ft | 573 kts | 313° |
| 2026-04-28 01:42 | 35.56098 | -97.66808 | 18931 ft | 563 kts | 291° |